sensor_id;sensor_type;location;lat;lon;timestamp;P1;durP1;ratioP1;P2;durP2;ratioP2
70729;SDS011;58315;53.336;55.932;2023-03-17T00:01:31;4.25;;;2.13;;
70729;SDS011;58315;53.336;55.932;2023-03-17T00:03:57;4.95;;;2.63;;
70729;SDS011;58315;53.336;55.932;2023-03-17T00:06:26;3.03;;;1.90;;
70729;SDS011;58315;53.336;55.932;2023-03-17T00:08:54;15.93;;;2.30;;
70729;SDS011;58315;53.336;55.932;2023-03-17T00:11:20;6.75;;;2.70;;
70729;SDS011;58315;53.336;55.932;2023-03-17T00:13:46;6.43;;;2.10;;
70729;SDS011;58315;53.336;55.932;2023-03-17T00:16:17;6.30;;;2.45;;
70729;SDS011;58315;53.336;55.932;2023-03-17T00:18:50;6.18;;;2.58;;
70729;SDS011;58315;53.336;55.932;2023-03-17T00:21:24;5.03;;;2.53;;
70729;SDS011;58315;53.336;55.932;2023-03-17T00:23:53;5.97;;;2.10;;
70729;SDS011;58315;53.336;55.932;2023-03-17T00:26:20;6.45;;;2.97;;
70729;SDS011;58315;53.336;55.932;2023-03-17T00:28:46;8.50;;;2.63;;
70729;SDS011;58315;53.336;55.932;2023-03-17T00:31:13;7.18;;;3.05;;
70729;SDS011;58315;53.336;55.932;2023-03-17T00:33:41;5.88;;;2.58;;
70729;SDS011;58315;53.336;55.932;2023-03-17T00:36:11;7.50;;;2.83;;
70729;SDS011;58315;53.336;55.932;2023-03-17T00:38:41;4.78;;;2.22;;
70729;SDS011;58315;53.336;55.932;2023-03-17T00:41:07;4.70;;;1.70;;
70729;SDS011;58315;53.336;55.932;2023-03-17T00:43:37;7.03;;;1.70;;
70729;SDS011;58315;53.336;55.932;2023-03-17T00:46:08;4.65;;;2.60;;
70729;SDS011;58315;53.336;55.932;2023-03-17T00:48:47;5.53;;;2.05;;
70729;SDS011;58315;53.336;55.932;2023-03-17T00:51:14;3.97;;;2.10;;
70729;SDS011;58315;53.336;55.932;2023-03-17T00:53:41;4.10;;;2.20;;
70729;SDS011;58315;53.336;55.932;2023-03-17T00:56:18;8.10;;;2.60;;
70729;SDS011;58315;53.336;55.932;2023-03-17T00:58:45;8.43;;;2.88;;
70729;SDS011;58315;53.336;55.932;2023-03-17T01:01:13;6.72;;;2.38;;
70729;SDS011;58315;53.336;55.932;2023-03-17T01:03:39;6.32;;;2.22;;
70729;SDS011;58315;53.336;55.932;2023-03-17T01:06:07;5.53;;;2.50;;
70729;SDS011;58315;53.336;55.932;2023-03-17T01:08:35;12.50;;;2.58;;
70729;SDS011;58315;53.336;55.932;2023-03-17T01:11:11;3.60;;;2.15;;
70729;SDS011;58315;53.336;55.932;2023-03-17T01:13:40;4.10;;;2.53;;
70729;SDS011;58315;53.336;55.932;2023-03-17T01:16:07;6.03;;;2.47;;
70729;SDS011;58315;53.336;55.932;2023-03-17T01:18:35;6.78;;;2.70;;
70729;SDS011;58315;53.336;55.932;2023-03-17T01:21:01;6.55;;;2.33;;
70729;SDS011;58315;53.336;55.932;2023-03-17T01:23:27;5.95;;;2.95;;
70729;SDS011;58315;53.336;55.932;2023-03-17T01:25:53;5.47;;;2.13;;
70729;SDS011;58315;53.336;55.932;2023-03-17T01:28:20;4.35;;;2.53;;
70729;SDS011;58315;53.336;55.932;2023-03-17T01:30:47;4.95;;;2.38;;
70729;SDS011;58315;53.336;55.932;2023-03-17T01:33:16;14.32;;;1.85;;
70729;SDS011;58315;53.336;55.932;2023-03-17T01:35:42;8.13;;;2.17;;
70729;SDS011;58315;53.336;55.932;2023-03-17T01:38:10;3.63;;;1.63;;
70729;SDS011;58315;53.336;55.932;2023-03-17T01:40:41;2.50;;;1.75;;
70729;SDS011;58315;53.336;55.932;2023-03-17T01:53:57;5.90;;;1.98;;
70729;SDS011;58315;53.336;55.932;2023-03-17T01:56:26;5.07;;;2.42;;
70729;SDS011;58315;53.336;55.932;2023-03-17T01:58:53;3.83;;;2.10;;
70729;SDS011;58315;53.336;55.932;2023-03-17T02:01:22;4.32;;;1.45;;
70729;SDS011;58315;53.336;55.932;2023-03-17T02:03:53;1.92;;;1.00;;
70729;SDS011;58315;53.336;55.932;2023-03-17T02:06:20;1.15;;;0.77;;
70729;SDS011;58315;53.336;55.932;2023-03-17T02:08:46;3.60;;;1.85;;
70729;SDS011;58315;53.336;55.932;2023-03-17T02:11:12;11.38;;;1.48;;
70729;SDS011;58315;53.336;55.932;2023-03-17T02:13:38;3.35;;;1.70;;
70729;SDS011;58315;53.336;55.932;2023-03-17T02:16:06;2.00;;;1.52;;
70729;SDS011;58315;53.336;55.932;2023-03-17T02:18:40;4.93;;;1.50;;
70729;SDS011;58315;53.336;55.932;2023-03-17T02:23:54;3.38;;;1.75;;
70729;SDS011;58315;53.336;55.932;2023-03-17T02:26:21;1.60;;;1.17;;
70729;SDS011;58315;53.336;55.932;2023-03-17T02:28:49;12.73;;;2.38;;
70729;SDS011;58315;53.336;55.932;2023-03-17T02:31:16;4.38;;;1.60;;
70729;SDS011;58315;53.336;55.932;2023-03-17T02:33:43;3.45;;;2.03;;
70729;SDS011;58315;53.336;55.932;2023-03-17T02:36:10;6.43;;;2.28;;
70729;SDS011;58315;53.336;55.932;2023-03-17T02:38:36;3.83;;;2.13;;
70729;SDS011;58315;53.336;55.932;2023-03-17T02:41:03;2.03;;;1.25;;
70729;SDS011;58315;53.336;55.932;2023-03-17T02:43:32;5.07;;;1.80;;
70729;SDS011;58315;53.336;55.932;2023-03-17T02:45:58;4.00;;;1.58;;
70729;SDS011;58315;53.336;55.932;2023-03-17T02:48:24;4.28;;;1.63;;
70729;SDS011;58315;53.336;55.932;2023-03-17T02:50:50;5.07;;;1.58;;
70729;SDS011;58315;53.336;55.932;2023-03-17T02:53:16;2.85;;;1.23;;
70729;SDS011;58315;53.336;55.932;2023-03-17T02:55:42;3.85;;;1.95;;
70729;SDS011;58315;53.336;55.932;2023-03-17T02:58:09;3.70;;;1.52;;
70729;SDS011;58315;53.336;55.932;2023-03-17T03:00:35;3.35;;;1.42;;
70729;SDS011;58315;53.336;55.932;2023-03-17T03:03:01;1.65;;;1.00;;
70729;SDS011;58315;53.336;55.932;2023-03-17T03:05:27;3.25;;;1.60;;
70729;SDS011;58315;53.336;55.932;2023-03-17T03:07:53;5.15;;;1.52;;
70729;SDS011;58315;53.336;55.932;2023-03-17T03:10:19;3.75;;;1.80;;
70729;SDS011;58315;53.336;55.932;2023-03-17T03:12:45;9.00;;;2.17;;
70729;SDS011;58315;53.336;55.932;2023-03-17T03:15:12;5.90;;;1.75;;
70729;SDS011;58315;53.336;55.932;2023-03-17T03:17:38;3.67;;;1.58;;
70729;SDS011;58315;53.336;55.932;2023-03-17T03:20:05;12.90;;;2.53;;
70729;SDS011;58315;53.336;55.932;2023-03-17T03:22:32;5.93;;;2.65;;
70729;SDS011;58315;53.336;55.932;2023-03-17T03:24:58;10.13;;;2.72;;
70729;SDS011;58315;53.336;55.932;2023-03-17T03:27:24;5.88;;;2.10;;
70729;SDS011;58315;53.336;55.932;2023-03-17T03:29:50;9.18;;;2.40;;
70729;SDS011;58315;53.336;55.932;2023-03-17T03:32:16;9.55;;;2.83;;
70729;SDS011;58315;53.336;55.932;2023-03-17T03:34:41;4.70;;;2.70;;
70729;SDS011;58315;53.336;55.932;2023-03-17T03:37:08;2.70;;;1.40;;
70729;SDS011;58315;53.336;55.932;2023-03-17T03:39:34;17.20;;;2.28;;
70729;SDS011;58315;53.336;55.932;2023-03-17T03:42:00;5.30;;;1.83;;
70729;SDS011;58315;53.336;55.932;2023-03-17T03:44:26;5.78;;;2.13;;
70729;SDS011;58315;53.336;55.932;2023-03-17T03:46:53;6.32;;;2.50;;
70729;SDS011;58315;53.336;55.932;2023-03-17T03:49:19;7.85;;;2.92;;
70729;SDS011;58315;53.336;55.932;2023-03-17T03:51:45;29.38;;;3.22;;
70729;SDS011;58315;53.336;55.932;2023-03-17T03:54:11;18.45;;;2.97;;
70729;SDS011;58315;53.336;55.932;2023-03-17T03:56:37;6.30;;;1.88;;
70729;SDS011;58315;53.336;55.932;2023-03-17T03:59:03;4.47;;;2.28;;
70729;SDS011;58315;53.336;55.932;2023-03-17T04:01:29;6.82;;;2.15;;
70729;SDS011;58315;53.336;55.932;2023-03-17T04:03:55;6.80;;;2.53;;
70729;SDS011;58315;53.336;55.932;2023-03-17T04:06:21;6.63;;;2.28;;
70729;SDS011;58315;53.336;55.932;2023-03-17T04:08:47;7.75;;;2.25;;
70729;SDS011;58315;53.336;55.932;2023-03-17T04:11:13;4.88;;;2.45;;
70729;SDS011;58315;53.336;55.932;2023-03-17T04:13:39;10.25;;;1.95;;
70729;SDS011;58315;53.336;55.932;2023-03-17T04:16:05;9.52;;;2.70;;
70729;SDS011;58315;53.336;55.932;2023-03-17T04:18:31;6.53;;;2.50;;
70729;SDS011;58315;53.336;55.932;2023-03-17T04:20:57;11.18;;;2.97;;
70729;SDS011;58315;53.336;55.932;2023-03-17T04:23:26;12.70;;;2.15;;
70729;SDS011;58315;53.336;55.932;2023-03-17T04:25:53;3.78;;;2.15;;
70729;SDS011;58315;53.336;55.932;2023-03-17T04:28:19;5.75;;;1.90;;
70729;SDS011;58315;53.336;55.932;2023-03-17T04:30:48;5.80;;;1.70;;
70729;SDS011;58315;53.336;55.932;2023-03-17T04:33:14;3.53;;;1.98;;
70729;SDS011;58315;53.336;55.932;2023-03-17T04:35:40;3.38;;;1.60;;
70729;SDS011;58315;53.336;55.932;2023-03-17T04:38:06;8.05;;;2.30;;
70729;SDS011;58315;53.336;55.932;2023-03-17T04:40:52;4.55;;;1.98;;
70729;SDS011;58315;53.336;55.932;2023-03-17T04:43:17;3.83;;;2.05;;
70729;SDS011;58315;53.336;55.932;2023-03-17T04:45:43;13.57;;;2.00;;
70729;SDS011;58315;53.336;55.932;2023-03-17T04:48:10;12.65;;;2.22;;
70729;SDS011;58315;53.336;55.932;2023-03-17T04:50:36;12.48;;;2.00;;
70729;SDS011;58315;53.336;55.932;2023-03-17T04:53:02;4.38;;;2.42;;
70729;SDS011;58315;53.336;55.932;2023-03-17T04:55:28;10.40;;;2.83;;
70729;SDS011;58315;53.336;55.932;2023-03-17T04:57:54;5.35;;;2.80;;
70729;SDS011;58315;53.336;55.932;2023-03-17T05:00:20;17.25;;;2.58;;
70729;SDS011;58315;53.336;55.932;2023-03-17T05:02:46;15.18;;;2.33;;
70729;SDS011;58315;53.336;55.932;2023-03-17T05:05:12;24.30;;;2.40;;
70729;SDS011;58315;53.336;55.932;2023-03-17T05:07:38;13.38;;;2.58;;
70729;SDS011;58315;53.336;55.932;2023-03-17T05:10:05;13.50;;;2.25;;
70729;SDS011;58315;53.336;55.932;2023-03-17T05:12:31;9.68;;;2.75;;
70729;SDS011;58315;53.336;55.932;2023-03-17T05:14:57;9.93;;;2.60;;
70729;SDS011;58315;53.336;55.932;2023-03-17T05:17:23;13.30;;;3.33;;
70729;SDS011;58315;53.336;55.932;2023-03-17T05:19:49;8.43;;;2.75;;
70729;SDS011;58315;53.336;55.932;2023-03-17T05:22:15;10.38;;;2.90;;
70729;SDS011;58315;53.336;55.932;2023-03-17T05:24:41;13.38;;;3.00;;
70729;SDS011;58315;53.336;55.932;2023-03-17T05:27:07;7.97;;;2.90;;
70729;SDS011;58315;53.336;55.932;2023-03-17T05:29:33;9.13;;;2.88;;
70729;SDS011;58315;53.336;55.932;2023-03-17T05:31:59;5.22;;;2.20;;
70729;SDS011;58315;53.336;55.932;2023-03-17T05:34:25;13.70;;;2.25;;
70729;SDS011;58315;53.336;55.932;2023-03-17T05:36:51;7.25;;;1.88;;
70729;SDS011;58315;53.336;55.932;2023-03-17T05:39:17;5.70;;;1.98;;
70729;SDS011;58315;53.336;55.932;2023-03-17T05:41:44;12.00;;;2.05;;
70729;SDS011;58315;53.336;55.932;2023-03-17T05:44:10;14.05;;;2.47;;
70729;SDS011;58315;53.336;55.932;2023-03-17T05:46:36;7.53;;;1.98;;
70729;SDS011;58315;53.336;55.932;2023-03-17T05:49:02;7.13;;;2.08;;
70729;SDS011;58315;53.336;55.932;2023-03-17T05:51:28;7.72;;;2.10;;
70729;SDS011;58315;53.336;55.932;2023-03-17T05:53:54;7.90;;;2.00;;
70729;SDS011;58315;53.336;55.932;2023-03-17T05:56:20;14.20;;;2.40;;
70729;SDS011;58315;53.336;55.932;2023-03-17T05:58:46;4.68;;;1.80;;
70729;SDS011;58315;53.336;55.932;2023-03-17T06:01:12;12.95;;;1.90;;
70729;SDS011;58315;53.336;55.932;2023-03-17T06:03:39;24.50;;;2.28;;
70729;SDS011;58315;53.336;55.932;2023-03-17T06:06:06;21.17;;;2.72;;
70729;SDS011;58315;53.336;55.932;2023-03-17T06:08:33;13.40;;;2.05;;
70729;SDS011;58315;53.336;55.932;2023-03-17T06:10:59;11.90;;;2.78;;
70729;SDS011;58315;53.336;55.932;2023-03-17T06:13:26;12.30;;;2.22;;
70729;SDS011;58315;53.336;55.932;2023-03-17T06:15:52;11.18;;;1.83;;
70729;SDS011;58315;53.336;55.932;2023-03-17T06:18:18;4.68;;;1.63;;
70729;SDS011;58315;53.336;55.932;2023-03-17T06:20:44;9.98;;;2.05;;
70729;SDS011;58315;53.336;55.932;2023-03-17T06:23:10;14.00;;;2.60;;
70729;SDS011;58315;53.336;55.932;2023-03-17T06:25:36;8.07;;;1.85;;
70729;SDS011;58315;53.336;55.932;2023-03-17T06:28:02;4.70;;;1.70;;
70729;SDS011;58315;53.336;55.932;2023-03-17T06:30:31;2.70;;;1.17;;
70729;SDS011;58315;53.336;55.932;2023-03-17T06:32:58;4.53;;;1.63;;
70729;SDS011;58315;53.336;55.932;2023-03-17T06:35:25;5.10;;;1.60;;
70729;SDS011;58315;53.336;55.932;2023-03-17T06:37:51;3.03;;;1.42;;
70729;SDS011;58315;53.336;55.932;2023-03-17T06:40:18;14.02;;;1.65;;
70729;SDS011;58315;53.336;55.932;2023-03-17T06:42:44;3.35;;;1.20;;
70729;SDS011;58315;53.336;55.932;2023-03-17T06:45:10;6.18;;;1.27;;
70729;SDS011;58315;53.336;55.932;2023-03-17T06:47:37;6.95;;;1.50;;
70729;SDS011;58315;53.336;55.932;2023-03-17T06:50:04;3.33;;;1.33;;
70729;SDS011;58315;53.336;55.932;2023-03-17T06:52:32;7.13;;;1.48;;
70729;SDS011;58315;53.336;55.932;2023-03-17T06:54:58;8.23;;;2.30;;
70729;SDS011;58315;53.336;55.932;2023-03-17T06:57:25;5.13;;;1.30;;
70729;SDS011;58315;53.336;55.932;2023-03-17T06:59:51;7.00;;;1.80;;
70729;SDS011;58315;53.336;55.932;2023-03-17T07:02:17;10.90;;;1.70;;
70729;SDS011;58315;53.336;55.932;2023-03-17T07:04:44;3.83;;;1.63;;
70729;SDS011;58315;53.336;55.932;2023-03-17T07:07:10;3.75;;;1.73;;
70729;SDS011;58315;53.336;55.932;2023-03-17T07:09:36;6.47;;;1.63;;
70729;SDS011;58315;53.336;55.932;2023-03-17T07:12:02;17.85;;;2.05;;
70729;SDS011;58315;53.336;55.932;2023-03-17T07:14:32;8.55;;;1.70;;
70729;SDS011;58315;53.336;55.932;2023-03-17T07:17:03;7.47;;;1.70;;
70729;SDS011;58315;53.336;55.932;2023-03-17T07:19:32;3.85;;;1.48;;
70729;SDS011;58315;53.336;55.932;2023-03-17T07:21:59;3.85;;;1.67;;
70729;SDS011;58315;53.336;55.932;2023-03-17T07:24:25;7.78;;;1.27;;
70729;SDS011;58315;53.336;55.932;2023-03-17T07:26:51;19.00;;;1.90;;
70729;SDS011;58315;53.336;55.932;2023-03-17T07:29:17;1.95;;;0.93;;
70729;SDS011;58315;53.336;55.932;2023-03-17T07:31:43;3.05;;;1.10;;
70729;SDS011;58315;53.336;55.932;2023-03-17T07:34:10;4.65;;;1.67;;
70729;SDS011;58315;53.336;55.932;2023-03-17T07:36:37;4.13;;;1.10;;
70729;SDS011;58315;53.336;55.932;2023-03-17T07:39:03;2.25;;;1.00;;
70729;SDS011;58315;53.336;55.932;2023-03-17T07:41:29;4.10;;;1.40;;
70729;SDS011;58315;53.336;55.932;2023-03-17T07:43:56;2.88;;;1.05;;
70729;SDS011;58315;53.336;55.932;2023-03-17T07:46:22;2.28;;;1.02;;
70729;SDS011;58315;53.336;55.932;2023-03-17T07:48:48;3.88;;;1.45;;
70729;SDS011;58315;53.336;55.932;2023-03-17T07:51:16;13.63;;;1.50;;
70729;SDS011;58315;53.336;55.932;2023-03-17T07:53:46;4.43;;;1.27;;
70729;SDS011;58315;53.336;55.932;2023-03-17T07:56:12;4.72;;;1.50;;
70729;SDS011;58315;53.336;55.932;2023-03-17T07:58:38;2.72;;;1.27;;
70729;SDS011;58315;53.336;55.932;2023-03-17T08:01:04;7.75;;;1.73;;
70729;SDS011;58315;53.336;55.932;2023-03-17T08:03:31;12.70;;;1.88;;
70729;SDS011;58315;53.336;55.932;2023-03-17T08:05:57;6.78;;;1.88;;
70729;SDS011;58315;53.336;55.932;2023-03-17T08:08:24;10.23;;;2.50;;
70729;SDS011;58315;53.336;55.932;2023-03-17T08:10:51;7.38;;;2.38;;
70729;SDS011;58315;53.336;55.932;2023-03-17T08:13:18;9.32;;;2.30;;
70729;SDS011;58315;53.336;55.932;2023-03-17T08:15:44;12.18;;;2.80;;
70729;SDS011;58315;53.336;55.932;2023-03-17T08:18:10;12.23;;;2.78;;
70729;SDS011;58315;53.336;55.932;2023-03-17T08:20:37;7.85;;;2.85;;
70729;SDS011;58315;53.336;55.932;2023-03-17T08:23:03;18.20;;;2.80;;
70729;SDS011;58315;53.336;55.932;2023-03-17T08:25:29;16.73;;;3.85;;
70729;SDS011;58315;53.336;55.932;2023-03-17T08:27:56;10.43;;;3.03;;
70729;SDS011;58315;53.336;55.932;2023-03-17T08:30:22;12.40;;;3.13;;
70729;SDS011;58315;53.336;55.932;2023-03-17T08:32:48;12.82;;;3.45;;
70729;SDS011;58315;53.336;55.932;2023-03-17T08:35:15;13.43;;;2.72;;
70729;SDS011;58315;53.336;55.932;2023-03-17T08:37:43;20.50;;;4.43;;
70729;SDS011;58315;53.336;55.932;2023-03-17T08:40:13;13.00;;;3.97;;
70729;SDS011;58315;53.336;55.932;2023-03-17T08:42:43;36.77;;;4.17;;
70729;SDS011;58315;53.336;55.932;2023-03-17T08:45:11;18.35;;;4.03;;
70729;SDS011;58315;53.336;55.932;2023-03-17T08:47:37;15.93;;;3.95;;
70729;SDS011;58315;53.336;55.932;2023-03-17T08:50:05;16.85;;;3.55;;
70729;SDS011;58315;53.336;55.932;2023-03-17T08:52:35;19.92;;;4.60;;
70729;SDS011;58315;53.336;55.932;2023-03-17T08:55:02;20.85;;;4.15;;
70729;SDS011;58315;53.336;55.932;2023-03-17T08:57:29;10.63;;;3.63;;
70729;SDS011;58315;53.336;55.932;2023-03-17T08:59:55;12.23;;;3.38;;
70729;SDS011;58315;53.336;55.932;2023-03-17T09:02:21;14.35;;;2.85;;
70729;SDS011;58315;53.336;55.932;2023-03-17T09:04:47;13.15;;;3.17;;
70729;SDS011;58315;53.336;55.932;2023-03-17T09:07:13;11.05;;;2.90;;
70729;SDS011;58315;53.336;55.932;2023-03-17T09:09:39;9.63;;;2.55;;
70729;SDS011;58315;53.336;55.932;2023-03-17T09:12:05;8.20;;;2.28;;
70729;SDS011;58315;53.336;55.932;2023-03-17T09:14:32;8.25;;;2.00;;
70729;SDS011;58315;53.336;55.932;2023-03-17T09:16:59;22.98;;;2.25;;
70729;SDS011;58315;53.336;55.932;2023-03-17T09:19:25;6.72;;;2.00;;
70729;SDS011;58315;53.336;55.932;2023-03-17T09:21:51;7.95;;;2.47;;
70729;SDS011;58315;53.336;55.932;2023-03-17T09:24:17;7.95;;;2.30;;
70729;SDS011;58315;53.336;55.932;2023-03-17T09:26:45;6.53;;;2.10;;
70729;SDS011;58315;53.336;55.932;2023-03-17T09:29:11;3.55;;;2.00;;
70729;SDS011;58315;53.336;55.932;2023-03-17T09:31:37;9.25;;;2.63;;
70729;SDS011;58315;53.336;55.932;2023-03-17T09:34:04;7.53;;;2.92;;
70729;SDS011;58315;53.336;55.932;2023-03-17T09:36:31;5.53;;;2.65;;
70729;SDS011;58315;53.336;55.932;2023-03-17T09:39:00;7.63;;;2.90;;
70729;SDS011;58315;53.336;55.932;2023-03-17T09:44:39;10.38;;;3.08;;
70729;SDS011;58315;53.336;55.932;2023-03-17T09:50:17;10.98;;;3.22;;
70729;SDS011;58315;53.336;55.932;2023-03-17T09:52:49;16.65;;;3.13;;
70729;SDS011;58315;53.336;55.932;2023-03-17T09:55:26;13.98;;;2.92;;
70729;SDS011;58315;53.336;55.932;2023-03-17T09:57:57;8.70;;;3.47;;
70729;SDS011;58315;53.336;55.932;2023-03-17T10:00:26;8.13;;;3.10;;
70729;SDS011;58315;53.336;55.932;2023-03-17T10:02:54;12.48;;;3.20;;
70729;SDS011;58315;53.336;55.932;2023-03-17T10:05:33;8.57;;;3.35;;
70729;SDS011;58315;53.336;55.932;2023-03-17T10:13:32;18.90;;;5.03;;
70729;SDS011;58315;53.336;55.932;2023-03-17T10:16:21;16.90;;;4.78;;
70729;SDS011;58315;53.336;55.932;2023-03-17T10:19:07;27.30;;;4.72;;
70729;SDS011;58315;53.336;55.932;2023-03-17T10:21:45;31.92;;;6.80;;
70729;SDS011;58315;53.336;55.932;2023-03-17T10:24:14;24.42;;;5.55;;
70729;SDS011;58315;53.336;55.932;2023-03-17T10:26:41;17.15;;;4.70;;
70729;SDS011;58315;53.336;55.932;2023-03-17T10:29:13;16.35;;;5.22;;
70729;SDS011;58315;53.336;55.932;2023-03-17T10:31:41;19.27;;;4.03;;
70729;SDS011;58315;53.336;55.932;2023-03-17T10:39:26;12.35;;;3.65;;
70729;SDS011;58315;53.336;55.932;2023-03-17T10:41:56;11.68;;;4.45;;
70729;SDS011;58315;53.336;55.932;2023-03-17T10:50:15;12.88;;;4.07;;
70729;SDS011;58315;53.336;55.932;2023-03-17T10:55:30;14.40;;;4.07;;
70729;SDS011;58315;53.336;55.932;2023-03-17T11:00:28;17.90;;;4.35;;
70729;SDS011;58315;53.336;55.932;2023-03-17T11:02:59;20.85;;;4.57;;
70729;SDS011;58315;53.336;55.932;2023-03-17T11:05:35;19.45;;;4.50;;
70729;SDS011;58315;53.336;55.932;2023-03-17T11:08:18;14.52;;;4.55;;
70729;SDS011;58315;53.336;55.932;2023-03-17T11:10:44;16.17;;;4.32;;
70729;SDS011;58315;53.336;55.932;2023-03-17T11:13:19;12.30;;;3.78;;
70729;SDS011;58315;53.336;55.932;2023-03-17T11:16:01;13.05;;;3.72;;
70729;SDS011;58315;53.336;55.932;2023-03-17T11:21:26;12.82;;;3.08;;
70729;SDS011;58315;53.336;55.932;2023-03-17T11:45:51;9.95;;;2.65;;
70729;SDS011;58315;53.336;55.932;2023-03-17T11:48:21;9.00;;;2.28;;
70729;SDS011;58315;53.336;55.932;2023-03-17T11:56:21;4.70;;;1.70;;
70729;SDS011;58315;53.336;55.932;2023-03-17T12:01:55;5.43;;;1.92;;
70729;SDS011;58315;53.336;55.932;2023-03-17T12:07:18;5.20;;;1.60;;
70729;SDS011;58315;53.336;55.932;2023-03-17T12:10:07;6.00;;;1.92;;
70729;SDS011;58315;53.336;55.932;2023-03-17T12:12:51;5.28;;;1.80;;
70729;SDS011;58315;53.336;55.932;2023-03-17T12:15:27;11.60;;;1.50;;
70729;SDS011;58315;53.336;55.932;2023-03-17T12:18:37;3.03;;;1.52;;
70729;SDS011;58315;53.336;55.932;2023-03-17T12:24:08;3.42;;;1.50;;
70729;SDS011;58315;53.336;55.932;2023-03-17T12:32:34;4.50;;;1.50;;
70729;SDS011;58315;53.336;55.932;2023-03-17T12:35:00;4.18;;;1.30;;
70729;SDS011;58315;53.336;55.932;2023-03-17T12:37:51;2.40;;;1.27;;
70729;SDS011;58315;53.336;55.932;2023-03-17T12:53:47;7.75;;;1.30;;
70729;SDS011;58315;53.336;55.932;2023-03-17T12:56:20;2.58;;;1.08;;
70729;SDS011;58315;53.336;55.932;2023-03-17T12:58:51;3.03;;;1.10;;
70729;SDS011;58315;53.336;55.932;2023-03-17T13:01:39;6.68;;;2.33;;
70729;SDS011;58315;53.336;55.932;2023-03-17T13:04:25;6.43;;;1.52;;
70729;SDS011;58315;53.336;55.932;2023-03-17T13:12:35;4.38;;;1.77;;
70729;SDS011;58315;53.336;55.932;2023-03-17T13:17:48;3.08;;;1.20;;
70729;SDS011;58315;53.336;55.932;2023-03-17T13:20:19;3.38;;;1.48;;
70729;SDS011;58315;53.336;55.932;2023-03-17T13:23:02;4.57;;;1.88;;
70729;SDS011;58315;53.336;55.932;2023-03-17T13:25:46;5.93;;;1.70;;
70729;SDS011;58315;53.336;55.932;2023-03-17T13:28:27;3.47;;;1.70;;
70729;SDS011;58315;53.336;55.932;2023-03-17T13:36:44;4.18;;;1.40;;
70729;SDS011;58315;53.336;55.932;2023-03-17T13:45:16;5.28;;;1.50;;
70729;SDS011;58315;53.336;55.932;2023-03-17T13:53:35;7.07;;;1.85;;
70729;SDS011;58315;53.336;55.932;2023-03-17T14:01:37;7.07;;;2.33;;
70729;SDS011;58315;53.336;55.932;2023-03-17T14:04:11;6.30;;;1.80;;
70729;SDS011;58315;53.336;55.932;2023-03-17T14:06:46;8.73;;;1.90;;
70729;SDS011;58315;53.336;55.932;2023-03-17T14:12:04;7.32;;;2.38;;
70729;SDS011;58315;53.336;55.932;2023-03-17T14:14:59;5.07;;;1.95;;
70729;SDS011;58315;53.336;55.932;2023-03-17T14:17:31;7.82;;;2.10;;
70729;SDS011;58315;53.336;55.932;2023-03-17T14:20:17;6.18;;;2.00;;
70729;SDS011;58315;53.336;55.932;2023-03-17T14:22:51;8.63;;;1.70;;
70729;SDS011;58315;53.336;55.932;2023-03-17T14:25:24;13.02;;;2.75;;
70729;SDS011;58315;53.336;55.932;2023-03-17T14:27:55;7.15;;;2.35;;
70729;SDS011;58315;53.336;55.932;2023-03-17T14:30:23;4.93;;;1.88;;
70729;SDS011;58315;53.336;55.932;2023-03-17T14:33:02;6.22;;;2.38;;
70729;SDS011;58315;53.336;55.932;2023-03-17T14:35:41;12.70;;;2.90;;
70729;SDS011;58315;53.336;55.932;2023-03-17T14:38:20;8.27;;;2.92;;
70729;SDS011;58315;53.336;55.932;2023-03-17T14:40:49;12.13;;;2.55;;
70729;SDS011;58315;53.336;55.932;2023-03-17T14:43:24;12.77;;;2.40;;
70729;SDS011;58315;53.336;55.932;2023-03-17T14:45:51;7.63;;;2.65;;
70729;SDS011;58315;53.336;55.932;2023-03-17T14:48:27;14.77;;;2.70;;
70729;SDS011;58315;53.336;55.932;2023-03-17T14:51:00;7.43;;;2.67;;
70729;SDS011;58315;53.336;55.932;2023-03-17T14:53:32;8.02;;;2.95;;
70729;SDS011;58315;53.336;55.932;2023-03-17T14:56:00;7.78;;;2.22;;
70729;SDS011;58315;53.336;55.932;2023-03-17T14:58:28;10.93;;;2.58;;
70729;SDS011;58315;53.336;55.932;2023-03-17T15:03:36;11.48;;;3.00;;
70729;SDS011;58315;53.336;55.932;2023-03-17T15:06:26;7.50;;;2.75;;
70729;SDS011;58315;53.336;55.932;2023-03-17T15:08:52;8.23;;;2.30;;
70729;SDS011;58315;53.336;55.932;2023-03-17T15:11:23;14.15;;;3.30;;
70729;SDS011;58315;53.336;55.932;2023-03-17T15:14:34;8.27;;;2.65;;
70729;SDS011;58315;53.336;55.932;2023-03-17T15:16:42;6.88;;;2.58;;
70729;SDS011;58315;53.336;55.932;2023-03-17T15:19:58;8.95;;;2.83;;
70729;SDS011;58315;53.336;55.932;2023-03-17T15:22:25;14.73;;;2.58;;
70729;SDS011;58315;53.336;55.932;2023-03-17T15:27:25;12.02;;;2.47;;
70729;SDS011;58315;53.336;55.932;2023-03-17T15:29:52;10.77;;;2.90;;
70729;SDS011;58315;53.336;55.932;2023-03-17T15:32:19;9.93;;;3.05;;
70729;SDS011;58315;53.336;55.932;2023-03-17T15:34:48;7.38;;;2.30;;
70729;SDS011;58315;53.336;55.932;2023-03-17T15:37:20;12.05;;;2.55;;
70729;SDS011;58315;53.336;55.932;2023-03-17T15:39:56;6.72;;;2.22;;
70729;SDS011;58315;53.336;55.932;2023-03-17T15:42:24;7.13;;;2.35;;
70729;SDS011;58315;53.336;55.932;2023-03-17T15:44:58;5.70;;;2.33;;
70729;SDS011;58315;53.336;55.932;2023-03-17T15:47:26;5.25;;;2.28;;
70729;SDS011;58315;53.336;55.932;2023-03-17T15:49:56;6.35;;;2.35;;
70729;SDS011;58315;53.336;55.932;2023-03-17T15:52:32;5.22;;;2.10;;
70729;SDS011;58315;53.336;55.932;2023-03-17T15:54:58;7.65;;;2.75;;
70729;SDS011;58315;53.336;55.932;2023-03-17T15:57:24;6.38;;;1.90;;
70729;SDS011;58315;53.336;55.932;2023-03-17T15:59:51;8.40;;;2.15;;
70729;SDS011;58315;53.336;55.932;2023-03-17T16:02:27;8.35;;;2.08;;
70729;SDS011;58315;53.336;55.932;2023-03-17T16:05:01;7.85;;;2.05;;
70729;SDS011;58315;53.336;55.932;2023-03-17T16:07:35;8.48;;;2.42;;
70729;SDS011;58315;53.336;55.932;2023-03-17T16:10:09;5.15;;;2.05;;
70729;SDS011;58315;53.336;55.932;2023-03-17T16:12:41;8.88;;;2.33;;
70729;SDS011;58315;53.336;55.932;2023-03-17T16:15:07;8.18;;;2.10;;
70729;SDS011;58315;53.336;55.932;2023-03-17T16:17:38;14.70;;;2.63;;
70729;SDS011;58315;53.336;55.932;2023-03-17T16:20:06;4.15;;;1.88;;
70729;SDS011;58315;53.336;55.932;2023-03-17T16:22:42;7.43;;;2.30;;
70729;SDS011;58315;53.336;55.932;2023-03-17T16:25:27;17.90;;;3.05;;
70729;SDS011;58315;53.336;55.932;2023-03-17T16:27:55;7.80;;;2.55;;
70729;SDS011;58315;53.336;55.932;2023-03-17T16:30:24;33.28;;;9.73;;
70729;SDS011;58315;53.336;55.932;2023-03-17T16:33:07;9.30;;;2.95;;
70729;SDS011;58315;53.336;55.932;2023-03-17T16:35:39;9.98;;;2.20;;
70729;SDS011;58315;53.336;55.932;2023-03-17T16:38:15;9.85;;;2.55;;
70729;SDS011;58315;53.336;55.932;2023-03-17T16:40:47;9.40;;;2.00;;
70729;SDS011;58315;53.336;55.932;2023-03-17T16:45:47;15.60;;;3.25;;
70729;SDS011;58315;53.336;55.932;2023-03-17T16:48:15;9.10;;;2.20;;
70729;SDS011;58315;53.336;55.932;2023-03-17T16:50:41;8.85;;;2.38;;
70729;SDS011;58315;53.336;55.932;2023-03-17T16:53:08;5.28;;;2.40;;
70729;SDS011;58315;53.336;55.932;2023-03-17T16:55:34;13.52;;;2.20;;
70729;SDS011;58315;53.336;55.932;2023-03-17T16:58:34;8.80;;;2.40;;
70729;SDS011;58315;53.336;55.932;2023-03-17T17:00:58;11.90;;;2.20;;
70729;SDS011;58315;53.336;55.932;2023-03-17T17:03:26;9.65;;;2.38;;
70729;SDS011;58315;53.336;55.932;2023-03-17T17:05:53;11.02;;;2.25;;